createdAt,value
2022-11-24T00:01:36.165Z,54.80
2022-11-24T00:06:58.512Z,51.70
2022-11-24T00:12:20.227Z,48.00
2022-11-24T00:17:42.029Z,50.50
2022-11-24T00:23:04.588Z,44.40
2022-11-24T00:28:26.818Z,46.50
2022-11-24T00:33:50.551Z,45.70
2022-11-24T00:39:14.244Z,48.40
2022-11-24T00:44:36.020Z,57.90
2022-11-24T00:49:57.845Z,97.20
2022-11-24T00:55:19.875Z,48.40
2022-11-24T01:00:41.906Z,47.70
2022-11-24T01:06:05.442Z,44.70
2022-11-24T01:11:54.966Z,46.70
2022-11-24T01:17:16.997Z,46.90
2022-11-24T01:22:39.432Z,48.60
2022-11-24T01:28:01.456Z,54.60
2022-11-24T01:33:23.084Z,52.50
2022-11-24T01:38:45.018Z,52.40
2022-11-24T01:44:41.064Z,50.60
2022-11-24T01:50:03.760Z,50.90
2022-11-24T01:55:29.797Z,48.60
2022-11-24T02:00:52.372Z,84.50
2022-11-24T02:06:17.556Z,53.30
2022-11-24T02:11:40.090Z,49.90
2022-11-24T02:17:01.871Z,55.80
2022-11-24T02:22:29.568Z,38.70
2022-11-24T02:27:54.212Z,46.50
2022-11-24T02:33:16.894Z,42.50
2022-11-24T02:38:38.920Z,47.80
2022-11-24T02:44:01.853Z,39.20
2022-11-24T02:49:24.687Z,44.60
2022-11-24T02:54:46.716Z,34.80
2022-11-24T03:00:09.749Z,33.60
2022-11-24T03:05:31.680Z,36.10
2022-11-24T03:10:54.713Z,38.90
2022-11-24T03:16:16.796Z,38.00
2022-11-24T03:21:38.871Z,40.90
2022-11-24T03:27:01.101Z,39.70
2022-11-24T03:32:23.036Z,36.40
2022-11-24T03:37:45.076Z,34.90
2022-11-24T03:43:07.098Z,35.50
2022-11-24T03:48:29.020Z,42.20
2022-11-24T03:53:50.749Z,39.50
2022-11-24T03:59:12.677Z,43.20
2022-11-24T04:04:34.993Z,37.70
2022-11-24T04:09:57.042Z,36.50
2022-11-24T04:15:20.183Z,41.80
2022-11-24T04:20:42.836Z,37.10
2022-11-24T04:26:04.633Z,40.40
2022-11-24T04:31:26.409Z,38.10
2022-11-24T04:36:48.694Z,38.90
2022-11-24T04:42:11.028Z,41.60
2022-11-24T04:47:33.555Z,35.50
2022-11-24T04:52:55.586Z,40.70
2022-11-24T04:58:17.716Z,31.80
2022-11-24T05:03:40.448Z,53.30
2022-11-24T05:09:02.193Z,48.60
2022-11-24T05:14:24.234Z,66.30
2022-11-24T05:19:46.090Z,46.80
2022-11-24T05:25:08.738Z,42.60
2022-11-24T05:30:34.007Z,66.10
2022-11-24T05:36:01.314Z,42.40
2022-11-24T05:41:23.586Z,54.10
2022-11-24T05:46:45.457Z,47.30
2022-11-24T05:52:07.444Z,79.90
2022-11-24T05:57:29.373Z,57.50
2022-11-24T06:02:51.263Z,65.40
2022-11-24T06:08:13.658Z,46.10
2022-11-24T06:13:35.929Z,48.10
2022-11-24T06:18:58.195Z,40.40
2022-11-24T06:24:20.332Z,41.00
2022-11-24T06:29:42.851Z,37.40
2022-11-24T06:35:06.590Z,38.80
2022-11-24T06:40:28.521Z,44.70
2022-11-24T06:45:53.604Z,43.40
2022-11-24T06:51:15.390Z,46.70
2022-11-24T06:56:37.620Z,54.20
2022-11-24T07:01:59.613Z,57.00
2022-11-24T07:07:21.661Z,49.60
2022-11-24T07:12:43.709Z,51.90
2022-11-24T07:18:05.539Z,48.50
2022-11-24T07:23:27.569Z,49.70
2022-11-24T07:28:49.454Z,44.50
2022-11-24T07:34:11.629Z,43.20
2022-11-24T07:39:33.779Z,44.60
2022-11-24T07:44:55.690Z,43.20
2022-11-24T07:50:17.820Z,42.60
2022-11-24T07:55:39.490Z,40.70
2022-11-24T08:01:15.801Z,53.70
2022-11-24T08:06:42.073Z,57.40
2022-11-24T08:12:07.814Z,55.80
2022-11-24T08:17:29.861Z,56.80
2022-11-24T08:22:51.981Z,46.60
2022-11-24T08:28:14.030Z,54.80
2022-11-24T08:33:36.647Z,60.40
2022-11-24T08:38:59.801Z,56.00
2022-11-24T08:44:21.779Z,67.60
2022-11-24T08:49:43.635Z,57.80
2022-11-24T08:55:05.937Z,61.90
2022-11-24T09:00:27.739Z,65.50
2022-11-24T09:05:52.546Z,63.20
2022-11-24T09:11:17.333Z,71.00
2022-11-24T09:16:39.325Z,69.50
2022-11-24T09:22:01.239Z,75.20
2022-11-24T09:27:23.375Z,84.00
2022-11-24T09:32:45.000Z,82.80
2022-11-24T09:38:06.869Z,72.60
2022-11-24T09:43:40.101Z,89.50
2022-11-24T09:49:03.682Z,87.30
2022-11-24T09:54:28.850Z,82.30
2022-11-24T09:59:51.095Z,84.20
2022-11-24T10:05:13.287Z,73.30
2022-11-24T10:10:44.686Z,64.30
2022-11-24T10:16:38.483Z,89.20
2022-11-24T10:22:09.429Z,94.40
2022-11-24T10:27:46.063Z,72.90
2022-11-24T10:33:15.896Z,76.60
2022-11-24T10:38:52.922Z,76.40
2022-11-24T10:44:15.713Z,74.40
2022-11-24T10:49:37.959Z,69.70
2022-11-24T10:55:01.983Z,101.50
2022-11-24T11:00:30.910Z,46.90
2022-11-24T11:11:44.681Z,47.40
2022-11-24T11:17:33.412Z,40.00
2022-11-24T11:22:56.394Z,85.10
2022-11-24T11:28:18.779Z,41.70
2022-11-24T11:39:24.182Z,48.60
2022-11-24T11:44:56.808Z,45.60
2022-11-24T11:50:47.462Z,50.70
2022-11-24T11:56:23.286Z,47.10
2022-11-24T12:02:10.149Z,37.80
2022-11-24T12:07:53.554Z,60.70
2022-11-24T12:13:39.983Z,37.50
2022-11-24T12:19:02.065Z,37.40
2022-11-24T12:24:54.513Z,36.30
2022-11-24T12:30:18.283Z,36.30
2022-11-24T12:35:44.065Z,38.60
2022-11-24T12:41:43.464Z,52.30
2022-11-24T12:47:08.116Z,50.60
2022-11-24T12:52:40.461Z,49.10
2022-11-24T12:58:30.928Z,31.60
2022-11-24T13:04:02.116Z,34.20
2022-11-24T13:09:23.864Z,43.90
2022-11-24T13:14:47.237Z,47.40
2022-11-24T13:20:21.574Z,45.30
2022-11-24T13:26:16.303Z,42.90
2022-11-24T13:31:38.503Z,40.00
2022-11-24T13:37:32.103Z,48.10
2022-11-24T13:42:54.692Z,67.40
2022-11-24T13:48:19.814Z,49.60
2022-11-24T13:53:47.808Z,63.00
2022-11-24T13:59:26.652Z,53.80
2022-11-24T14:04:48.890Z,52.00
2022-11-24T14:10:20.119Z,59.60
2022-11-24T14:15:41.952Z,41.40
2022-11-24T14:21:24.007Z,57.40
2022-11-24T14:26:46.671Z,61.40
2022-11-24T14:32:16.129Z,62.80
2022-11-24T14:37:38.219Z,70.30
2022-11-24T14:42:59.745Z,57.10
2022-11-24T14:48:33.617Z,56.70
2022-11-24T14:53:59.226Z,65.30
2022-11-24T14:59:23.131Z,55.00
2022-11-24T15:05:04.974Z,47.40
2022-11-24T15:10:36.972Z,63.80
2022-11-24T15:16:03.371Z,56.90
2022-11-24T15:21:33.596Z,60.10
2022-11-24T15:27:00.495Z,63.30
2022-11-24T15:32:22.107Z,72.00
2022-11-24T15:37:44.604Z,86.60
2022-11-24T15:43:17.746Z,110.60
2022-11-24T15:48:39.780Z,98.50
2022-11-24T15:54:01.839Z,70.80
2022-11-24T15:59:23.871Z,70.10
2022-11-24T16:04:45.972Z,60.50
2022-11-24T16:10:18.021Z,58.20
2022-11-24T16:15:40.002Z,55.50
2022-11-24T16:21:01.823Z,69.80
2022-11-24T16:26:23.944Z,68.70
2022-11-24T16:31:47.309Z,64.30
2022-11-24T16:37:10.030Z,62.40
2022-11-24T16:42:32.821Z,53.90
2022-11-24T16:47:55.343Z,60.30
2022-11-24T16:53:17.707Z,56.50
2022-11-24T16:58:40.882Z,60.70
2022-11-24T17:04:02.609Z,62.60
2022-11-24T17:09:24.559Z,58.90
2022-11-24T17:15:03.375Z,62.90
2022-11-24T17:20:28.639Z,59.40
2022-11-24T17:25:50.962Z,58.40
2022-11-24T17:31:24.187Z,52.10
2022-11-24T17:36:46.344Z,70.00
2022-11-24T17:42:08.688Z,70.50
2022-11-24T17:47:30.818Z,78.40
2022-11-24T17:52:53.453Z,81.50
2022-11-24T17:58:15.278Z,66.50
2022-11-24T18:03:39.309Z,74.10
2022-11-24T18:09:00.993Z,58.80
2022-11-24T18:14:23.072Z,78.20
2022-11-24T18:19:45.745Z,83.30
2022-11-24T18:25:08.176Z,74.60
2022-11-24T18:30:30.069Z,76.90
2022-11-24T18:36:02.081Z,84.10
2022-11-24T18:41:23.879Z,83.40
2022-11-24T18:46:45.845Z,77.80
2022-11-24T18:52:07.812Z,77.80
2022-11-24T18:57:31.525Z,80.90
2022-11-24T19:02:53.831Z,71.20
2022-11-24T19:08:15.992Z,79.50
2022-11-24T19:13:37.766Z,87.60
2022-11-24T19:19:02.003Z,78.80
2022-11-24T19:24:23.910Z,100.80
2022-11-24T19:29:47.772Z,98.80
2022-11-24T19:35:09.682Z,95.70
2022-11-24T19:40:31.664Z,104.80
2022-11-24T19:45:53.700Z,107.60
2022-11-24T19:51:21.165Z,143.10
2022-11-24T19:56:43.078Z,166.60
2022-11-24T20:02:04.953Z,165.60
2022-11-24T20:07:27.105Z,117.10
2022-11-24T20:12:48.841Z,119.60
2022-11-24T20:18:10.764Z,151.30
2022-11-24T20:23:33.061Z,126.60
2022-11-24T20:28:56.355Z,144.40
2022-11-24T20:34:19.015Z,201.90
2022-11-24T20:39:40.677Z,146.40
2022-11-24T20:45:02.414Z,237.60
2022-11-24T20:50:24.500Z,251.60
2022-11-24T20:55:46.239Z,208.00
2022-11-24T21:01:09.319Z,144.50
2022-11-24T21:06:31.708Z,134.40
2022-11-24T21:11:54.800Z,106.30
2022-11-24T21:17:16.653Z,155.60
2022-11-24T21:22:40.255Z,124.10
2022-11-24T21:28:02.341Z,153.20
2022-11-24T21:33:24.936Z,161.40
2022-11-24T21:38:57.119Z,119.80
2022-11-24T21:44:19.238Z,128.40
2022-11-24T21:49:41.143Z,121.90
2022-11-24T21:55:03.163Z,137.70
2022-11-24T22:00:24.968Z,139.40
2022-11-24T22:05:56.915Z,119.80
2022-11-24T22:11:24.436Z,125.20
2022-11-24T22:16:46.575Z,120.50
2022-11-24T22:22:08.623Z,127.60
2022-11-24T22:27:30.855Z,139.50
2022-11-24T22:32:53.294Z,127.20
2022-11-24T22:38:15.122Z,125.30
2022-11-24T22:43:38.252Z,133.20
2022-11-24T22:49:01.633Z,166.90
2022-11-24T22:54:23.483Z,172.30
2022-11-24T22:59:45.409Z,178.80
2022-11-24T23:05:08.480Z,170.70
2022-11-24T23:10:30.402Z,161.70
2022-11-24T23:15:52.335Z,163.20
2022-11-24T23:21:19.477Z,168.90
2022-11-24T23:26:41.891Z,210.90
2022-11-24T23:32:04.180Z,174.80
2022-11-24T23:37:39.425Z,206.50
2022-11-24T23:43:08.171Z,218.40
2022-11-24T23:48:30.064Z,200.60
2022-11-24T23:53:52.933Z,164.60
2022-11-24T23:59:14.662Z,172.40
